createdAt,value
2023-05-02T06:18:54.870Z,1.20
2023-05-02T06:21:21.699Z,1.67
2023-05-02T06:23:48.648Z,1.47
2023-05-02T06:26:15.495Z,1.53
2023-05-02T06:28:42.335Z,1.47
2023-05-02T06:31:09.230Z,1.53
2023-05-02T06:33:36.909Z,1.03
2023-05-02T06:36:04.037Z,1.50
2023-05-02T06:38:30.890Z,1.30
2023-05-02T06:40:57.763Z,1.60
2023-05-02T06:43:24.644Z,1.80
2023-05-02T06:45:55.618Z,1.47
2023-05-02T06:48:22.925Z,1.50
2023-05-02T06:50:51.614Z,1.60
2023-05-02T06:53:18.404Z,1.57
2023-05-02T06:55:46.521Z,1.70
2023-05-02T06:58:13.500Z,1.30
2023-05-02T07:00:41.198Z,1.77
2023-05-02T07:03:08.691Z,1.57
2023-05-02T07:05:35.627Z,1.40
2023-05-02T07:08:02.486Z,1.30
2023-05-02T07:10:29.366Z,1.17
2023-05-02T07:12:56.303Z,1.50
2023-05-02T07:15:23.249Z,1.60
2023-05-02T07:17:50.620Z,2.30
2023-05-02T07:20:17.791Z,1.30
2023-05-02T07:22:44.589Z,1.90
2023-05-02T07:25:11.574Z,1.40
2023-05-02T07:27:38.445Z,1.20
2023-05-02T07:30:06.789Z,1.53
2023-05-02T07:32:33.789Z,1.30
2023-05-02T07:35:00.771Z,1.20
2023-05-02T07:37:27.692Z,1.90
2023-05-02T07:39:54.559Z,1.20
2023-05-02T07:42:21.390Z,1.20
2023-05-02T07:44:48.212Z,1.20
2023-05-02T07:47:15.068Z,1.10
2023-05-02T07:49:41.947Z,1.13
2023-05-02T07:52:08.748Z,1.70
2023-05-02T07:54:36.027Z,1.03
2023-05-02T07:57:03.618Z,1.83
2023-05-02T07:59:31.706Z,1.40
2023-05-02T08:01:58.761Z,1.33
2023-05-02T08:04:26.457Z,1.30
2023-05-02T08:06:53.546Z,1.10
2023-05-02T08:09:20.369Z,1.10
2023-05-02T08:11:47.679Z,0.90
2023-05-02T08:14:16.239Z,0.70
2023-05-02T08:16:45.536Z,0.73
2023-05-02T08:19:13.208Z,0.90
2023-05-02T08:21:40.034Z,1.10
2023-05-02T08:24:06.936Z,1.33
2023-05-02T08:26:33.964Z,1.10
2023-05-02T08:29:01.309Z,1.10
2023-05-02T08:31:28.334Z,1.10
2023-05-02T08:33:55.184Z,1.10
2023-05-02T08:36:22.226Z,1.10
2023-05-02T08:38:49.708Z,0.90
2023-05-02T08:41:19.697Z,1.10
2023-05-02T08:43:47.027Z,1.30
2023-05-02T08:46:15.255Z,1.10
2023-05-02T08:48:43.241Z,1.20
2023-05-02T08:51:12.151Z,1.50
2023-05-02T08:53:40.168Z,1.07
2023-05-02T08:56:08.306Z,1.27
2023-05-02T08:58:39.565Z,1.00
2023-05-02T09:01:24.998Z,1.10
2023-05-02T09:03:52.585Z,0.97
2023-05-02T09:06:23.114Z,1.00
2023-05-02T09:08:52.690Z,1.10
2023-05-02T09:11:19.948Z,1.20
2023-05-02T09:13:52.302Z,1.30
2023-05-02T09:16:27.346Z,1.40
2023-05-02T09:18:55.374Z,1.20
2023-05-02T09:21:24.232Z,1.07
2023-05-02T09:23:54.159Z,1.47
2023-05-02T09:26:35.262Z,1.13
2023-05-02T09:29:04.001Z,1.00
2023-05-02T09:34:12.098Z,1.97
2023-05-02T09:36:43.591Z,1.10
2023-05-02T09:39:13.352Z,1.10
2023-05-02T09:41:45.261Z,1.37
2023-05-02T09:44:17.221Z,1.17
2023-05-02T09:47:04.322Z,1.30
2023-05-02T09:49:46.104Z,1.33
2023-05-02T09:52:17.825Z,1.30
2023-05-02T09:54:56.636Z,1.17
2023-05-02T09:57:39.638Z,1.10
2023-05-02T10:00:07.053Z,1.10
2023-05-02T10:02:34.402Z,0.97
2023-05-02T10:05:02.163Z,1.00
2023-05-02T10:07:29.600Z,1.20
2023-05-02T10:09:58.789Z,1.10
2023-05-02T10:12:27.045Z,1.10
2023-05-02T10:15:01.527Z,1.10
2023-05-02T10:17:31.942Z,1.20
2023-05-02T10:20:04.848Z,1.70
2023-05-02T10:22:37.113Z,1.70
2023-05-02T10:25:04.705Z,1.10
2023-05-02T10:27:32.432Z,1.27
2023-05-02T10:30:01.032Z,1.10
2023-05-02T10:32:34.057Z,1.27
2023-05-02T10:35:08.363Z,1.10
2023-05-02T10:37:36.925Z,1.23
2023-05-02T10:40:04.155Z,1.07
2023-05-02T10:42:31.208Z,1.20
2023-05-02T10:44:58.240Z,0.90
2023-05-02T10:47:28.414Z,1.33
2023-05-02T10:50:00.995Z,0.93
2023-05-02T10:52:38.298Z,1.60
2023-05-02T10:55:18.337Z,1.33
2023-05-02T10:58:00.191Z,1.30
2023-05-02T11:00:32.636Z,1.10
2023-05-02T11:03:00.095Z,1.00
2023-05-02T11:05:28.525Z,1.43
2023-05-02T11:08:24.927Z,1.10
2023-05-02T11:10:51.901Z,1.50
2023-05-02T11:13:51.363Z,1.50
2023-05-02T11:16:18.360Z,1.40
2023-05-02T11:19:01.500Z,1.77
2023-05-02T11:21:29.787Z,1.20
2023-05-02T11:24:33.760Z,1.30
2023-05-02T11:27:31.489Z,1.30
2023-05-02T11:30:03.106Z,1.40
2023-05-02T11:32:49.523Z,1.00
2023-05-02T11:35:17.209Z,1.07
2023-05-02T11:37:44.091Z,1.10
2023-05-02T11:40:14.572Z,0.90
2023-05-02T11:42:42.053Z,1.57
2023-05-02T11:45:13.685Z,1.07
2023-05-02T11:47:42.252Z,1.13
2023-05-02T11:50:09.887Z,1.40
2023-05-02T11:52:41.136Z,1.40
2023-05-02T11:55:11.734Z,1.03
2023-05-02T11:57:39.454Z,1.30
2023-05-02T12:00:08.129Z,1.20
2023-05-02T12:02:45.599Z,1.37
2023-05-02T12:05:14.063Z,1.33
2023-05-02T12:07:45.928Z,1.17
2023-05-02T12:10:13.520Z,1.00
2023-05-02T12:12:41.393Z,1.20
2023-05-02T12:15:10.128Z,1.40
2023-05-02T12:17:42.649Z,1.40
2023-05-02T12:20:10.254Z,1.40
2023-05-02T12:22:37.978Z,1.20
2023-05-02T12:25:05.932Z,0.90
2023-05-02T12:27:35.504Z,1.20
2023-05-02T12:30:02.917Z,1.23
2023-05-02T12:32:31.596Z,1.27
2023-05-02T12:34:59.423Z,1.20
2023-05-02T12:37:27.553Z,1.00
2023-05-02T12:39:55.897Z,1.10
2023-05-02T12:42:27.006Z,0.80
2023-05-02T12:44:54.135Z,0.90
2023-05-02T12:47:22.895Z,0.80
2023-05-02T12:49:52.773Z,1.20
2023-05-02T12:52:20.768Z,0.80
2023-05-02T12:54:48.582Z,0.90
2023-05-02T12:57:24.167Z,1.00
2023-05-02T12:59:53.426Z,0.60
2023-05-02T13:02:21.347Z,0.80
2023-05-02T13:04:48.314Z,1.13
2023-05-02T13:07:15.122Z,0.90
2023-05-02T13:09:41.992Z,1.00
2023-05-02T13:12:09.484Z,0.70
2023-05-02T13:14:36.428Z,0.80
2023-05-02T13:17:04.217Z,1.10
2023-05-02T13:19:31.835Z,0.80
2023-05-02T13:21:58.930Z,0.80
2023-05-02T13:24:25.953Z,0.70
2023-05-02T13:26:52.849Z,0.73
2023-05-02T13:29:19.680Z,0.77
2023-05-02T13:31:46.499Z,1.03
2023-05-02T13:34:13.428Z,0.97
2023-05-02T13:36:46.419Z,0.80
2023-05-02T13:39:14.187Z,1.03
2023-05-02T13:41:41.688Z,0.77
2023-05-02T13:44:09.615Z,0.70
2023-05-02T13:46:37.997Z,0.80
2023-05-02T13:49:05.646Z,1.00
2023-05-02T13:51:33.100Z,0.90
2023-05-02T13:54:00.566Z,0.87
2023-05-02T13:56:27.694Z,0.93
2023-05-02T13:58:54.687Z,1.00
2023-05-02T14:01:21.575Z,0.93
2023-05-02T14:03:49.251Z,1.10
2023-05-02T14:06:16.699Z,0.77
2023-05-02T14:08:44.014Z,0.87
2023-05-02T14:11:11.534Z,1.23
2023-05-02T14:13:38.373Z,1.20
2023-05-02T14:16:05.810Z,0.90
2023-05-02T14:18:32.725Z,1.13
2023-05-02T14:21:00.319Z,0.87
2023-05-02T14:23:30.733Z,1.00
2023-05-02T14:25:58.078Z,1.13
2023-05-02T14:28:24.948Z,1.33
2023-05-02T14:30:51.882Z,1.43
2023-05-02T14:33:18.768Z,1.00
2023-05-02T14:35:45.950Z,1.30
2023-05-02T14:38:12.814Z,1.10
2023-05-02T14:40:39.657Z,1.53
2023-05-02T14:43:06.606Z,1.33
2023-05-02T14:45:33.452Z,0.93
2023-05-02T14:48:00.360Z,0.87
2023-05-02T14:50:27.202Z,1.30
2023-05-02T14:52:54.097Z,0.90
2023-05-02T14:55:20.979Z,0.93
2023-05-02T14:57:48.143Z,0.63
2023-05-02T15:00:16.313Z,0.90
2023-05-02T15:02:43.337Z,0.90
2023-05-02T15:05:12.779Z,1.30
2023-05-02T15:07:40.003Z,1.20
2023-05-02T15:10:07.279Z,1.80
2023-05-02T15:12:34.188Z,1.53
2023-05-02T15:15:01.236Z,1.33
2023-05-02T15:17:28.081Z,1.00
2023-05-02T15:19:57.047Z,1.63
2023-05-02T15:22:26.240Z,1.40
2023-05-02T15:24:53.165Z,2.03
2023-05-02T15:27:19.989Z,1.10
2023-05-02T15:29:48.218Z,1.30
2023-05-02T15:32:15.096Z,1.40
2023-05-02T15:34:41.922Z,1.13
2023-05-02T15:37:08.883Z,1.10
2023-05-02T15:39:35.914Z,1.40
2023-05-02T15:42:06.292Z,1.00
2023-05-02T15:44:39.320Z,1.07
2023-05-02T15:47:06.212Z,0.90
2023-05-02T15:49:33.815Z,0.93
2023-05-02T15:52:02.730Z,1.03
2023-05-02T15:54:29.957Z,1.10
2023-05-02T15:56:56.740Z,1.00
2023-05-02T15:59:23.517Z,1.17
2023-05-02T16:01:50.359Z,1.00
2023-05-02T16:04:17.361Z,1.07
2023-05-02T16:06:44.521Z,1.03
2023-05-02T16:09:12.992Z,1.00
2023-05-02T16:11:39.848Z,1.40
2023-05-02T16:14:06.810Z,1.33
2023-05-02T16:16:34.250Z,0.80
2023-05-02T16:19:01.378Z,1.40
2023-05-02T16:21:28.337Z,1.23
2023-05-02T16:23:55.342Z,1.17
2023-05-02T16:26:22.310Z,2.13
2023-05-02T16:28:49.236Z,1.90
2023-05-02T16:31:16.276Z,2.13
2023-05-02T16:33:43.147Z,2.33
2023-05-02T16:36:10.496Z,3.17
2023-05-02T16:38:37.338Z,2.30
2023-05-02T16:41:07.186Z,2.50
2023-05-02T16:43:34.276Z,3.20
2023-05-02T16:46:06.431Z,2.93
2023-05-02T16:48:34.098Z,2.40
2023-05-02T16:51:02.549Z,2.47
2023-05-02T16:53:31.546Z,1.73
2023-05-02T16:55:59.753Z,1.40
2023-05-02T16:58:29.262Z,1.20
2023-05-02T17:00:56.568Z,1.53
2023-05-02T17:03:23.482Z,1.87
2023-05-02T17:05:50.279Z,1.33
2023-05-02T17:08:17.130Z,1.57
2023-05-02T17:10:51.957Z,1.50
2023-05-02T17:13:18.819Z,1.70
2023-05-02T17:15:45.633Z,1.20
2023-05-02T17:18:12.515Z,1.43
2023-05-02T17:20:39.951Z,1.87
2023-05-02T17:23:07.188Z,1.77
2023-05-02T17:25:34.136Z,1.37
2023-05-02T17:28:01.917Z,1.73
2023-05-02T17:30:29.553Z,1.30
2023-05-02T17:32:56.875Z,1.70
2023-05-02T17:35:23.881Z,1.27
2023-05-02T17:37:50.719Z,1.57
2023-05-02T17:40:17.633Z,1.70
2023-05-02T17:42:47.465Z,1.57
2023-05-02T17:45:14.230Z,1.77
2023-05-02T17:47:41.141Z,1.37
2023-05-02T17:50:08.915Z,1.53
2023-05-02T17:52:35.756Z,1.40
2023-05-02T17:55:02.714Z,1.27
2023-05-02T17:57:29.734Z,1.67
2023-05-02T17:59:59.713Z,1.70
2023-05-02T18:02:27.748Z,1.30
2023-05-02T18:04:55.047Z,1.47
2023-05-02T18:07:28.468Z,1.50
2023-05-02T18:09:55.603Z,1.40
2023-05-02T18:12:22.527Z,1.20
2023-05-02T18:14:49.392Z,1.20
2023-05-02T18:17:20.637Z,1.30
2023-05-02T18:19:49.415Z,1.10
2023-05-02T18:22:19.568Z,1.50
2023-05-02T18:24:47.177Z,1.40
2023-05-02T18:27:14.020Z,1.50
2023-05-02T18:29:41.542Z,1.30
2023-05-02T18:32:08.564Z,1.60
2023-05-02T18:34:38.368Z,1.37
2023-05-02T18:37:05.907Z,1.20
2023-05-02T18:39:33.514Z,1.43
2023-05-02T18:42:04.474Z,1.40
2023-05-02T18:44:31.934Z,1.40
2023-05-02T18:46:59.018Z,1.37
2023-05-02T18:49:26.603Z,1.33
2023-05-02T18:51:54.641Z,1.10
2023-05-02T18:54:23.550Z,1.50
2023-05-02T18:56:50.638Z,1.37
2023-05-02T18:59:19.128Z,1.23
2023-05-02T19:01:48.582Z,1.10
2023-05-02T19:04:15.924Z,1.40
2023-05-02T19:06:43.237Z,1.87
2023-05-02T19:09:12.672Z,1.20
2023-05-02T19:11:40.714Z,1.60
2023-05-02T19:14:08.327Z,1.73
2023-05-02T19:16:36.416Z,1.40
2023-05-02T19:19:03.881Z,1.43
2023-05-02T19:21:31.885Z,1.77
2023-05-02T19:23:59.579Z,1.10
2023-05-02T19:26:26.945Z,1.43
2023-05-02T19:28:54.063Z,1.33
2023-05-02T19:31:21.666Z,1.17
2023-05-02T19:33:52.213Z,1.47
2023-05-02T19:36:22.218Z,1.30
2023-05-02T19:38:51.493Z,1.07
2023-05-02T19:41:18.972Z,1.27
2023-05-02T19:43:46.477Z,1.27
2023-05-02T19:46:16.904Z,1.30
2023-05-02T19:48:44.181Z,1.40
2023-05-02T19:51:11.306Z,1.80
2023-05-02T19:53:38.601Z,1.40
2023-05-02T19:56:08.847Z,1.40
